sensor_id;sensor_type;location;lat;lon;timestamp;P1;durP1;ratioP1;P2;durP2;ratioP2
55720;SDS011;41626;53.098;6.168;2023-03-17T00:01:37;6.40;;;4.32;;
55720;SDS011;41626;53.098;6.168;2023-03-17T00:04:03;8.23;;;4.40;;
55720;SDS011;41626;53.098;6.168;2023-03-17T00:06:30;6.30;;;4.50;;
55720;SDS011;41626;53.098;6.168;2023-03-17T00:08:57;7.32;;;4.28;;
55720;SDS011;41626;53.098;6.168;2023-03-17T00:11:23;6.57;;;4.35;;
55720;SDS011;41626;53.098;6.168;2023-03-17T00:13:50;8.50;;;5.10;;
55720;SDS011;41626;53.098;6.168;2023-03-17T00:18:50;6.75;;;4.40;;
55720;SDS011;41626;53.098;6.168;2023-03-17T00:21:21;6.10;;;4.15;;
55720;SDS011;41626;53.098;6.168;2023-03-17T00:23:52;8.95;;;5.00;;
55720;SDS011;41626;53.098;6.168;2023-03-17T00:26:19;5.80;;;4.35;;
55720;SDS011;41626;53.098;6.168;2023-03-17T00:28:44;5.83;;;4.30;;
55720;SDS011;41626;53.098;6.168;2023-03-17T00:31:17;6.90;;;4.50;;
55720;SDS011;41626;53.098;6.168;2023-03-17T00:33:56;6.72;;;4.25;;
55720;SDS011;41626;53.098;6.168;2023-03-17T00:36:26;5.60;;;4.03;;
55720;SDS011;41626;53.098;6.168;2023-03-17T00:38:53;6.55;;;3.83;;
55720;SDS011;41626;53.098;6.168;2023-03-17T00:41:19;5.38;;;3.72;;
55720;SDS011;41626;53.098;6.168;2023-03-17T00:43:46;6.80;;;4.47;;
55720;SDS011;41626;53.098;6.168;2023-03-17T00:46:13;7.20;;;4.20;;
55720;SDS011;41626;53.098;6.168;2023-03-17T00:48:44;6.60;;;3.65;;
55720;SDS011;41626;53.098;6.168;2023-03-17T00:51:11;9.20;;;4.43;;
55720;SDS011;41626;53.098;6.168;2023-03-17T00:53:37;8.35;;;4.25;;
55720;SDS011;41626;53.098;6.168;2023-03-17T00:56:03;4.90;;;3.80;;
55720;SDS011;41626;53.098;6.168;2023-03-17T00:58:33;7.13;;;3.85;;
55720;SDS011;41626;53.098;6.168;2023-03-17T01:00:58;8.95;;;3.38;;
55720;SDS011;41626;53.098;6.168;2023-03-17T01:03:25;6.35;;;3.75;;
55720;SDS011;41626;53.098;6.168;2023-03-17T01:05:52;6.35;;;4.10;;
55720;SDS011;41626;53.098;6.168;2023-03-17T01:08:19;8.38;;;4.55;;
55720;SDS011;41626;53.098;6.168;2023-03-17T01:10:46;6.30;;;4.10;;
55720;SDS011;41626;53.098;6.168;2023-03-17T01:13:12;6.20;;;3.97;;
55720;SDS011;41626;53.098;6.168;2023-03-17T01:15:42;7.75;;;3.70;;
55720;SDS011;41626;53.098;6.168;2023-03-17T01:18:11;6.53;;;4.05;;
55720;SDS011;41626;53.098;6.168;2023-03-17T01:20:38;4.38;;;3.50;;
55720;SDS011;41626;53.098;6.168;2023-03-17T01:23:05;6.70;;;3.90;;
55720;SDS011;41626;53.098;6.168;2023-03-17T01:25:31;6.60;;;3.38;;
55720;SDS011;41626;53.098;6.168;2023-03-17T01:27:58;7.05;;;3.80;;
55720;SDS011;41626;53.098;6.168;2023-03-17T01:30:25;5.03;;;3.10;;
55720;SDS011;41626;53.098;6.168;2023-03-17T01:33:03;6.50;;;3.37;;
55720;SDS011;41626;53.098;6.168;2023-03-17T01:35:30;6.25;;;3.30;;
55720;SDS011;41626;53.098;6.168;2023-03-17T01:37:57;7.30;;;3.88;;
55720;SDS011;41626;53.098;6.168;2023-03-17T01:40:30;6.00;;;3.83;;
55720;SDS011;41626;53.098;6.168;2023-03-17T01:42:58;5.57;;;3.20;;
55720;SDS011;41626;53.098;6.168;2023-03-17T01:51:18;5.35;;;3.17;;
55720;SDS011;41626;53.098;6.168;2023-03-17T01:53:48;4.93;;;3.58;;
55720;SDS011;41626;53.098;6.168;2023-03-17T01:56:16;5.57;;;3.50;;
55720;SDS011;41626;53.098;6.168;2023-03-17T01:58:44;8.70;;;4.10;;
55720;SDS011;41626;53.098;6.168;2023-03-17T02:01:12;6.53;;;3.72;;
55720;SDS011;41626;53.098;6.168;2023-03-17T02:03:38;4.47;;;3.33;;
55720;SDS011;41626;53.098;6.168;2023-03-17T02:06:04;5.32;;;3.85;;
55720;SDS011;41626;53.098;6.168;2023-03-17T02:08:31;6.07;;;3.97;;
55720;SDS011;41626;53.098;6.168;2023-03-17T02:10:57;5.20;;;3.37;;
55720;SDS011;41626;53.098;6.168;2023-03-17T02:13:23;5.65;;;3.92;;
55720;SDS011;41626;53.098;6.168;2023-03-17T02:15:50;5.60;;;3.63;;
55720;SDS011;41626;53.098;6.168;2023-03-17T02:18:18;5.78;;;3.80;;
55720;SDS011;41626;53.098;6.168;2023-03-17T02:23:11;8.18;;;3.95;;
55720;SDS011;41626;53.098;6.168;2023-03-17T02:25:42;4.63;;;2.95;;
55720;SDS011;41626;53.098;6.168;2023-03-17T02:28:12;5.30;;;3.45;;
55720;SDS011;41626;53.098;6.168;2023-03-17T02:30:41;6.28;;;3.95;;
55720;SDS011;41626;53.098;6.168;2023-03-17T02:33:10;6.82;;;3.47;;
55720;SDS011;41626;53.098;6.168;2023-03-17T02:35:36;7.32;;;3.75;;
55720;SDS011;41626;53.098;6.168;2023-03-17T02:38:03;7.10;;;4.70;;
55720;SDS011;41626;53.098;6.168;2023-03-17T02:40:29;6.22;;;3.65;;
55720;SDS011;41626;53.098;6.168;2023-03-17T02:42:54;5.05;;;3.38;;
55720;SDS011;41626;53.098;6.168;2023-03-17T02:45:21;4.23;;;3.60;;
55720;SDS011;41626;53.098;6.168;2023-03-17T02:47:48;5.70;;;3.70;;
55720;SDS011;41626;53.098;6.168;2023-03-17T02:50:22;6.75;;;4.50;;
55720;SDS011;41626;53.098;6.168;2023-03-17T02:52:50;5.35;;;3.83;;
55720;SDS011;41626;53.098;6.168;2023-03-17T02:55:16;4.70;;;3.53;;
55720;SDS011;41626;53.098;6.168;2023-03-17T02:57:42;4.23;;;3.43;;
55720;SDS011;41626;53.098;6.168;2023-03-17T03:00:09;7.50;;;3.83;;
55720;SDS011;41626;53.098;6.168;2023-03-17T03:02:39;5.90;;;3.42;;
55720;SDS011;41626;53.098;6.168;2023-03-17T03:05:05;5.90;;;3.60;;
55720;SDS011;41626;53.098;6.168;2023-03-17T03:07:33;5.47;;;3.65;;
55720;SDS011;41626;53.098;6.168;2023-03-17T03:09:58;4.85;;;3.80;;
55720;SDS011;41626;53.098;6.168;2023-03-17T03:12:24;7.18;;;3.90;;
55720;SDS011;41626;53.098;6.168;2023-03-17T03:14:50;5.35;;;3.97;;
55720;SDS011;41626;53.098;6.168;2023-03-17T03:17:16;5.28;;;3.88;;
55720;SDS011;41626;53.098;6.168;2023-03-17T03:19:42;5.13;;;3.60;;
55720;SDS011;41626;53.098;6.168;2023-03-17T03:22:08;6.13;;;3.58;;
55720;SDS011;41626;53.098;6.168;2023-03-17T03:24:34;6.10;;;3.80;;
55720;SDS011;41626;53.098;6.168;2023-03-17T03:27:00;6.77;;;3.53;;
55720;SDS011;41626;53.098;6.168;2023-03-17T03:29:26;5.03;;;3.65;;
55720;SDS011;41626;53.098;6.168;2023-03-17T03:31:51;7.80;;;3.60;;
55720;SDS011;41626;53.098;6.168;2023-03-17T03:34:17;6.38;;;3.80;;
55720;SDS011;41626;53.098;6.168;2023-03-17T03:36:43;5.20;;;3.55;;
55720;SDS011;41626;53.098;6.168;2023-03-17T03:39:09;4.73;;;3.73;;
55720;SDS011;41626;53.098;6.168;2023-03-17T03:41:35;5.13;;;3.63;;
55720;SDS011;41626;53.098;6.168;2023-03-17T03:44:00;6.63;;;4.10;;
55720;SDS011;41626;53.098;6.168;2023-03-17T03:46:26;6.43;;;4.17;;
55720;SDS011;41626;53.098;6.168;2023-03-17T03:48:53;5.28;;;3.50;;
55720;SDS011;41626;53.098;6.168;2023-03-17T03:51:19;5.75;;;3.65;;
55720;SDS011;41626;53.098;6.168;2023-03-17T03:53:45;4.40;;;3.45;;
55720;SDS011;41626;53.098;6.168;2023-03-17T03:56:12;4.50;;;3.40;;
55720;SDS011;41626;53.098;6.168;2023-03-17T03:58:38;8.10;;;4.25;;
55720;SDS011;41626;53.098;6.168;2023-03-17T04:01:04;6.78;;;4.00;;
55720;SDS011;41626;53.098;6.168;2023-03-17T04:03:31;5.80;;;3.65;;
55720;SDS011;41626;53.098;6.168;2023-03-17T04:05:57;7.27;;;3.67;;
55720;SDS011;41626;53.098;6.168;2023-03-17T04:08:23;7.13;;;3.40;;
55720;SDS011;41626;53.098;6.168;2023-03-17T04:10:48;6.87;;;3.50;;
55720;SDS011;41626;53.098;6.168;2023-03-17T04:13:14;6.30;;;3.60;;
55720;SDS011;41626;53.098;6.168;2023-03-17T04:15:40;4.80;;;3.67;;
55720;SDS011;41626;53.098;6.168;2023-03-17T04:18:06;5.95;;;3.60;;
55720;SDS011;41626;53.098;6.168;2023-03-17T04:20:32;7.50;;;3.95;;
55720;SDS011;41626;53.098;6.168;2023-03-17T04:22:58;6.57;;;4.38;;
55720;SDS011;41626;53.098;6.168;2023-03-17T04:25:23;6.90;;;4.07;;
55720;SDS011;41626;53.098;6.168;2023-03-17T04:27:49;4.87;;;3.70;;
55720;SDS011;41626;53.098;6.168;2023-03-17T04:30:15;6.43;;;3.53;;
55720;SDS011;41626;53.098;6.168;2023-03-17T04:32:42;5.03;;;3.47;;
55720;SDS011;41626;53.098;6.168;2023-03-17T04:35:12;5.60;;;4.13;;
55720;SDS011;41626;53.098;6.168;2023-03-17T04:37:39;6.18;;;3.92;;
55720;SDS011;41626;53.098;6.168;2023-03-17T04:40:06;7.22;;;3.30;;
55720;SDS011;41626;53.098;6.168;2023-03-17T04:42:34;6.30;;;3.58;;
55720;SDS011;41626;53.098;6.168;2023-03-17T04:45:00;4.40;;;3.22;;
55720;SDS011;41626;53.098;6.168;2023-03-17T04:47:26;6.07;;;3.83;;
55720;SDS011;41626;53.098;6.168;2023-03-17T04:49:51;4.07;;;3.45;;
55720;SDS011;41626;53.098;6.168;2023-03-17T04:52:18;5.20;;;3.30;;
55720;SDS011;41626;53.098;6.168;2023-03-17T04:54:43;5.50;;;3.33;;
55720;SDS011;41626;53.098;6.168;2023-03-17T04:57:09;4.80;;;3.80;;
55720;SDS011;41626;53.098;6.168;2023-03-17T04:59:35;7.33;;;3.70;;
55720;SDS011;41626;53.098;6.168;2023-03-17T05:02:00;4.67;;;3.67;;
55720;SDS011;41626;53.098;6.168;2023-03-17T05:04:26;5.00;;;3.50;;
55720;SDS011;41626;53.098;6.168;2023-03-17T05:06:52;5.68;;;4.18;;
55720;SDS011;41626;53.098;6.168;2023-03-17T05:09:17;4.55;;;3.60;;
55720;SDS011;41626;53.098;6.168;2023-03-17T05:11:43;9.43;;;4.20;;
55720;SDS011;41626;53.098;6.168;2023-03-17T05:14:09;4.57;;;2.85;;
55720;SDS011;41626;53.098;6.168;2023-03-17T05:16:34;6.18;;;4.05;;
55720;SDS011;41626;53.098;6.168;2023-03-17T05:19:00;4.32;;;3.28;;
55720;SDS011;41626;53.098;6.168;2023-03-17T05:21:26;5.97;;;3.30;;
55720;SDS011;41626;53.098;6.168;2023-03-17T05:23:51;7.13;;;3.30;;
55720;SDS011;41626;53.098;6.168;2023-03-17T05:26:17;4.35;;;3.08;;
55720;SDS011;41626;53.098;6.168;2023-03-17T05:28:43;5.95;;;3.30;;
55720;SDS011;41626;53.098;6.168;2023-03-17T05:31:09;3.67;;;3.13;;
55720;SDS011;41626;53.098;6.168;2023-03-17T05:33:35;4.80;;;3.47;;
55720;SDS011;41626;53.098;6.168;2023-03-17T05:36:01;4.85;;;3.15;;
55720;SDS011;41626;53.098;6.168;2023-03-17T05:38:27;5.75;;;2.83;;
55720;SDS011;41626;53.098;6.168;2023-03-17T05:40:53;7.97;;;3.60;;
55720;SDS011;41626;53.098;6.168;2023-03-17T05:43:19;4.85;;;3.72;;
55720;SDS011;41626;53.098;6.168;2023-03-17T05:45:45;4.47;;;3.03;;
55720;SDS011;41626;53.098;6.168;2023-03-17T05:48:11;4.93;;;3.45;;
55720;SDS011;41626;53.098;6.168;2023-03-17T05:50:37;5.40;;;3.00;;
55720;SDS011;41626;53.098;6.168;2023-03-17T05:53:04;3.95;;;3.08;;
55720;SDS011;41626;53.098;6.168;2023-03-17T05:55:30;6.63;;;3.42;;
55720;SDS011;41626;53.098;6.168;2023-03-17T05:57:56;4.03;;;3.38;;
55720;SDS011;41626;53.098;6.168;2023-03-17T06:00:21;6.10;;;2.92;;
55720;SDS011;41626;53.098;6.168;2023-03-17T06:02:47;5.95;;;3.55;;
55720;SDS011;41626;53.098;6.168;2023-03-17T06:05:13;4.20;;;2.90;;
55720;SDS011;41626;53.098;6.168;2023-03-17T06:07:39;6.20;;;3.00;;
55720;SDS011;41626;53.098;6.168;2023-03-17T06:10:06;5.20;;;3.72;;
55720;SDS011;41626;53.098;6.168;2023-03-17T06:12:32;4.75;;;2.97;;
55720;SDS011;41626;53.098;6.168;2023-03-17T06:14:57;6.18;;;3.13;;
55720;SDS011;41626;53.098;6.168;2023-03-17T06:17:23;6.63;;;3.22;;
55720;SDS011;41626;53.098;6.168;2023-03-17T06:19:49;3.58;;;2.90;;
55720;SDS011;41626;53.098;6.168;2023-03-17T06:22:15;5.50;;;3.10;;
55720;SDS011;41626;53.098;6.168;2023-03-17T06:24:41;5.28;;;2.70;;
55720;SDS011;41626;53.098;6.168;2023-03-17T06:27:06;5.47;;;3.40;;
55720;SDS011;41626;53.098;6.168;2023-03-17T06:29:34;4.57;;;2.78;;
55720;SDS011;41626;53.098;6.168;2023-03-17T06:32:01;5.23;;;3.50;;
55720;SDS011;41626;53.098;6.168;2023-03-17T06:34:28;4.68;;;2.72;;
55720;SDS011;41626;53.098;6.168;2023-03-17T06:36:53;5.38;;;2.92;;
55720;SDS011;41626;53.098;6.168;2023-03-17T06:39:19;7.07;;;2.80;;
55720;SDS011;41626;53.098;6.168;2023-03-17T06:41:45;5.60;;;3.17;;
55720;SDS011;41626;53.098;6.168;2023-03-17T06:44:11;5.45;;;2.90;;
55720;SDS011;41626;53.098;6.168;2023-03-17T06:46:38;7.07;;;3.78;;
55720;SDS011;41626;53.098;6.168;2023-03-17T06:49:03;4.72;;;3.45;;
55720;SDS011;41626;53.098;6.168;2023-03-17T06:51:29;7.57;;;3.20;;
55720;SDS011;41626;53.098;6.168;2023-03-17T06:53:56;4.38;;;3.33;;
55720;SDS011;41626;53.098;6.168;2023-03-17T06:56:22;5.53;;;3.33;;
55720;SDS011;41626;53.098;6.168;2023-03-17T06:58:48;4.47;;;2.73;;
55720;SDS011;41626;53.098;6.168;2023-03-17T07:01:15;5.00;;;3.13;;
55720;SDS011;41626;53.098;6.168;2023-03-17T07:03:41;5.05;;;3.20;;
55720;SDS011;41626;53.098;6.168;2023-03-17T07:06:07;6.18;;;2.75;;
55720;SDS011;41626;53.098;6.168;2023-03-17T07:08:33;4.67;;;3.00;;
55720;SDS011;41626;53.098;6.168;2023-03-17T07:11:00;4.20;;;2.88;;
55720;SDS011;41626;53.098;6.168;2023-03-17T07:13:28;4.77;;;3.07;;
55720;SDS011;41626;53.098;6.168;2023-03-17T07:15:54;5.22;;;3.22;;
55720;SDS011;41626;53.098;6.168;2023-03-17T07:18:20;6.47;;;3.28;;
55720;SDS011;41626;53.098;6.168;2023-03-17T07:20:45;6.73;;;3.63;;
55720;SDS011;41626;53.098;6.168;2023-03-17T07:23:16;5.20;;;3.30;;
55720;SDS011;41626;53.098;6.168;2023-03-17T07:25:45;4.63;;;2.97;;
55720;SDS011;41626;53.098;6.168;2023-03-17T07:28:11;3.83;;;2.90;;
55720;SDS011;41626;53.098;6.168;2023-03-17T07:30:37;6.40;;;2.90;;
55720;SDS011;41626;53.098;6.168;2023-03-17T07:33:04;4.47;;;2.83;;
55720;SDS011;41626;53.098;6.168;2023-03-17T07:35:30;6.10;;;2.60;;
55720;SDS011;41626;53.098;6.168;2023-03-17T07:37:57;4.93;;;3.17;;
55720;SDS011;41626;53.098;6.168;2023-03-17T07:40:23;4.05;;;2.80;;
55720;SDS011;41626;53.098;6.168;2023-03-17T07:42:50;4.80;;;2.67;;
55720;SDS011;41626;53.098;6.168;2023-03-17T07:45:16;5.80;;;3.07;;
55720;SDS011;41626;53.098;6.168;2023-03-17T07:47:42;5.40;;;3.03;;
55720;SDS011;41626;53.098;6.168;2023-03-17T07:50:07;5.15;;;3.42;;
55720;SDS011;41626;53.098;6.168;2023-03-17T07:52:33;6.45;;;2.97;;
55720;SDS011;41626;53.098;6.168;2023-03-17T07:54:59;3.45;;;2.75;;
55720;SDS011;41626;53.098;6.168;2023-03-17T07:57:25;3.92;;;2.55;;
55720;SDS011;41626;53.098;6.168;2023-03-17T07:59:51;4.72;;;3.70;;
55720;SDS011;41626;53.098;6.168;2023-03-17T08:02:17;3.78;;;2.60;;
55720;SDS011;41626;53.098;6.168;2023-03-17T08:04:43;5.10;;;2.95;;
55720;SDS011;41626;53.098;6.168;2023-03-17T08:07:10;8.52;;;3.05;;
55720;SDS011;41626;53.098;6.168;2023-03-17T08:09:36;5.22;;;3.28;;
55720;SDS011;41626;53.098;6.168;2023-03-17T08:12:03;7.50;;;3.17;;
55720;SDS011;41626;53.098;6.168;2023-03-17T08:14:29;4.25;;;2.88;;
55720;SDS011;41626;53.098;6.168;2023-03-17T08:16:55;6.07;;;3.10;;
55720;SDS011;41626;53.098;6.168;2023-03-17T08:19:21;3.92;;;3.35;;
55720;SDS011;41626;53.098;6.168;2023-03-17T08:21:48;6.32;;;3.13;;
55720;SDS011;41626;53.098;6.168;2023-03-17T08:24:14;6.22;;;3.20;;
55720;SDS011;41626;53.098;6.168;2023-03-17T08:26:40;3.38;;;2.40;;
55720;SDS011;41626;53.098;6.168;2023-03-17T08:29:07;5.18;;;3.03;;
55720;SDS011;41626;53.098;6.168;2023-03-17T08:31:33;6.30;;;3.85;;
55720;SDS011;41626;53.098;6.168;2023-03-17T08:33:59;4.90;;;2.83;;
55720;SDS011;41626;53.098;6.168;2023-03-17T08:36:27;5.05;;;2.63;;
55720;SDS011;41626;53.098;6.168;2023-03-17T08:38:53;6.67;;;3.07;;
55720;SDS011;41626;53.098;6.168;2023-03-17T08:41:20;2.90;;;2.55;;
55720;SDS011;41626;53.098;6.168;2023-03-17T08:43:48;6.43;;;3.45;;
55720;SDS011;41626;53.098;6.168;2023-03-17T08:46:22;5.68;;;2.90;;
55720;SDS011;41626;53.098;6.168;2023-03-17T08:48:50;4.53;;;3.08;;
55720;SDS011;41626;53.098;6.168;2023-03-17T08:51:19;4.18;;;2.80;;
55720;SDS011;41626;53.098;6.168;2023-03-17T08:53:45;6.90;;;2.90;;
55720;SDS011;41626;53.098;6.168;2023-03-17T08:56:11;4.82;;;2.97;;
55720;SDS011;41626;53.098;6.168;2023-03-17T08:58:38;5.30;;;3.67;;
55720;SDS011;41626;53.098;6.168;2023-03-17T09:01:05;5.55;;;3.35;;
55720;SDS011;41626;53.098;6.168;2023-03-17T09:03:31;4.82;;;2.60;;
55720;SDS011;41626;53.098;6.168;2023-03-17T09:05:57;4.53;;;2.80;;
55720;SDS011;41626;53.098;6.168;2023-03-17T09:08:23;5.50;;;2.92;;
55720;SDS011;41626;53.098;6.168;2023-03-17T09:10:50;4.22;;;2.97;;
55720;SDS011;41626;53.098;6.168;2023-03-17T09:13:16;5.38;;;3.15;;
55720;SDS011;41626;53.098;6.168;2023-03-17T09:15:43;7.35;;;3.20;;
55720;SDS011;41626;53.098;6.168;2023-03-17T09:18:10;4.30;;;3.35;;
55720;SDS011;41626;53.098;6.168;2023-03-17T09:20:36;7.07;;;3.27;;
55720;SDS011;41626;53.098;6.168;2023-03-17T09:23:04;5.87;;;3.37;;
55720;SDS011;41626;53.098;6.168;2023-03-17T09:25:34;4.32;;;2.95;;
55720;SDS011;41626;53.098;6.168;2023-03-17T09:28:01;4.23;;;3.10;;
55720;SDS011;41626;53.098;6.168;2023-03-17T09:30:28;7.32;;;4.00;;
55720;SDS011;41626;53.098;6.168;2023-03-17T09:32:54;6.95;;;4.00;;
55720;SDS011;41626;53.098;6.168;2023-03-17T09:35:20;5.88;;;3.40;;
55720;SDS011;41626;53.098;6.168;2023-03-17T09:37:46;6.68;;;3.60;;
55720;SDS011;41626;53.098;6.168;2023-03-17T09:40:14;5.85;;;3.85;;
55720;SDS011;41626;53.098;6.168;2023-03-17T09:51:13;6.40;;;3.58;;
55720;SDS011;41626;53.098;6.168;2023-03-17T09:53:58;8.40;;;3.55;;
55720;SDS011;41626;53.098;6.168;2023-03-17T09:56:31;6.18;;;3.25;;
55720;SDS011;41626;53.098;6.168;2023-03-17T09:59:11;5.25;;;3.70;;
55720;SDS011;41626;53.098;6.168;2023-03-17T10:05:06;7.13;;;4.20;;
55720;SDS011;41626;53.098;6.168;2023-03-17T10:15:49;7.78;;;4.35;;
55720;SDS011;41626;53.098;6.168;2023-03-17T10:18:22;6.97;;;3.80;;
55720;SDS011;41626;53.098;6.168;2023-03-17T10:20:56;5.25;;;3.80;;
55720;SDS011;41626;53.098;6.168;2023-03-17T10:23:30;8.57;;;3.72;;
55720;SDS011;41626;53.098;6.168;2023-03-17T10:25:59;7.00;;;4.65;;
55720;SDS011;41626;53.098;6.168;2023-03-17T10:28:34;7.63;;;4.28;;
55720;SDS011;41626;53.098;6.168;2023-03-17T10:31:16;7.90;;;4.93;;
55720;SDS011;41626;53.098;6.168;2023-03-17T10:33:43;4.75;;;3.55;;
55720;SDS011;41626;53.098;6.168;2023-03-17T10:36:13;7.47;;;4.22;;
55720;SDS011;41626;53.098;6.168;2023-03-17T10:38:41;5.57;;;4.03;;
55720;SDS011;41626;53.098;6.168;2023-03-17T10:41:16;7.05;;;3.95;;
55720;SDS011;41626;53.098;6.168;2023-03-17T10:43:43;6.00;;;4.37;;
55720;SDS011;41626;53.098;6.168;2023-03-17T10:46:18;7.18;;;4.65;;
55720;SDS011;41626;53.098;6.168;2023-03-17T10:48:52;6.38;;;4.15;;
55720;SDS011;41626;53.098;6.168;2023-03-17T10:51:30;8.35;;;4.38;;
55720;SDS011;41626;53.098;6.168;2023-03-17T10:54:12;6.90;;;4.03;;
55720;SDS011;41626;53.098;6.168;2023-03-17T10:56:47;6.03;;;4.30;;
55720;SDS011;41626;53.098;6.168;2023-03-17T10:59:24;7.82;;;4.47;;
55720;SDS011;41626;53.098;6.168;2023-03-17T11:01:56;7.53;;;4.32;;
55720;SDS011;41626;53.098;6.168;2023-03-17T11:04:34;5.93;;;4.22;;
55720;SDS011;41626;53.098;6.168;2023-03-17T11:09:49;6.70;;;4.73;;
55720;SDS011;41626;53.098;6.168;2023-03-17T11:12:23;8.45;;;5.75;;
55720;SDS011;41626;53.098;6.168;2023-03-17T11:14:58;7.47;;;4.95;;
55720;SDS011;41626;53.098;6.168;2023-03-17T11:17:42;6.63;;;4.88;;
55720;SDS011;41626;53.098;6.168;2023-03-17T11:20:25;8.07;;;5.20;;
55720;SDS011;41626;53.098;6.168;2023-03-17T11:23:01;7.60;;;4.68;;
55720;SDS011;41626;53.098;6.168;2023-03-17T11:25:37;9.77;;;5.40;;
55720;SDS011;41626;53.098;6.168;2023-03-17T11:28:12;6.70;;;5.10;;
55720;SDS011;41626;53.098;6.168;2023-03-17T11:31:07;12.52;;;5.57;;
55720;SDS011;41626;53.098;6.168;2023-03-17T11:37:04;9.70;;;4.55;;
55720;SDS011;41626;53.098;6.168;2023-03-17T11:50:59;7.38;;;4.65;;
55720;SDS011;41626;53.098;6.168;2023-03-17T11:56:19;7.50;;;5.40;;
55720;SDS011;41626;53.098;6.168;2023-03-17T11:58:57;7.97;;;5.53;;
55720;SDS011;41626;53.098;6.168;2023-03-17T12:01:28;8.82;;;5.45;;
55720;SDS011;41626;53.098;6.168;2023-03-17T12:04:47;8.60;;;5.38;;
55720;SDS011;41626;53.098;6.168;2023-03-17T12:07:17;8.77;;;6.10;;
55720;SDS011;41626;53.098;6.168;2023-03-17T12:09:49;9.50;;;6.05;;
55720;SDS011;41626;53.098;6.168;2023-03-17T12:12:30;7.88;;;5.70;;
55720;SDS011;41626;53.098;6.168;2023-03-17T12:15:02;6.78;;;5.03;;
55720;SDS011;41626;53.098;6.168;2023-03-17T12:17:33;8.60;;;5.50;;
55720;SDS011;41626;53.098;6.168;2023-03-17T12:20:06;9.75;;;5.50;;
55720;SDS011;41626;53.098;6.168;2023-03-17T12:22:55;7.97;;;5.53;;
55720;SDS011;41626;53.098;6.168;2023-03-17T12:28:23;8.33;;;5.87;;
55720;SDS011;41626;53.098;6.168;2023-03-17T12:30:56;8.07;;;5.80;;
55720;SDS011;41626;53.098;6.168;2023-03-17T12:33:39;10.07;;;6.03;;
55720;SDS011;41626;53.098;6.168;2023-03-17T12:36:14;7.20;;;5.07;;
55720;SDS011;41626;53.098;6.168;2023-03-17T12:38:50;12.57;;;6.40;;
55720;SDS011;41626;53.098;6.168;2023-03-17T12:41:37;12.02;;;6.78;;
55720;SDS011;41626;53.098;6.168;2023-03-17T12:45:30;9.52;;;5.82;;
55720;SDS011;41626;53.098;6.168;2023-03-17T12:50:30;8.30;;;5.50;;
55720;SDS011;41626;53.098;6.168;2023-03-17T12:55:44;9.43;;;6.72;;
55720;SDS011;41626;53.098;6.168;2023-03-17T13:00:55;7.47;;;5.53;;
55720;SDS011;41626;53.098;6.168;2023-03-17T13:03:31;8.65;;;5.70;;
55720;SDS011;41626;53.098;6.168;2023-03-17T13:06:01;10.10;;;5.72;;
55720;SDS011;41626;53.098;6.168;2023-03-17T13:08:33;9.70;;;6.13;;
55720;SDS011;41626;53.098;6.168;2023-03-17T13:11:14;12.38;;;6.22;;
55720;SDS011;41626;53.098;6.168;2023-03-17T13:16:32;13.90;;;6.65;;
55720;SDS011;41626;53.098;6.168;2023-03-17T13:21:37;8.77;;;6.57;;
55720;SDS011;41626;53.098;6.168;2023-03-17T13:26:49;8.88;;;6.15;;
55720;SDS011;41626;53.098;6.168;2023-03-17T13:29:26;8.38;;;6.00;;
55720;SDS011;41626;53.098;6.168;2023-03-17T13:35:24;10.40;;;6.57;;
55720;SDS011;41626;53.098;6.168;2023-03-17T13:46:43;7.43;;;6.13;;
55720;SDS011;41626;53.098;6.168;2023-03-17T13:49:17;9.30;;;6.75;;
55720;SDS011;41626;53.098;6.168;2023-03-17T13:52:00;9.13;;;6.13;;
55720;SDS011;41626;53.098;6.168;2023-03-17T13:54:32;10.52;;;6.57;;
55720;SDS011;41626;53.098;6.168;2023-03-17T13:59:54;8.50;;;6.00;;
55720;SDS011;41626;53.098;6.168;2023-03-17T14:02:24;9.20;;;6.10;;
55720;SDS011;41626;53.098;6.168;2023-03-17T14:05:00;8.13;;;6.07;;
55720;SDS011;41626;53.098;6.168;2023-03-17T14:07:34;13.05;;;6.97;;
55720;SDS011;41626;53.098;6.168;2023-03-17T14:10:20;7.35;;;5.93;;
55720;SDS011;41626;53.098;6.168;2023-03-17T14:13:11;7.78;;;6.63;;
55720;SDS011;41626;53.098;6.168;2023-03-17T14:15:53;12.05;;;6.63;;
55720;SDS011;41626;53.098;6.168;2023-03-17T14:18:28;8.75;;;6.55;;
55720;SDS011;41626;53.098;6.168;2023-03-17T14:21:02;9.20;;;5.97;;
55720;SDS011;41626;53.098;6.168;2023-03-17T14:23:30;8.07;;;6.13;;
55720;SDS011;41626;53.098;6.168;2023-03-17T14:25:59;10.57;;;7.05;;
55720;SDS011;41626;53.098;6.168;2023-03-17T14:28:31;8.88;;;6.47;;
55720;SDS011;41626;53.098;6.168;2023-03-17T14:31:03;12.27;;;7.67;;
55720;SDS011;41626;53.098;6.168;2023-03-17T14:33:39;10.05;;;6.55;;
55720;SDS011;41626;53.098;6.168;2023-03-17T14:36:09;7.72;;;6.30;;
55720;SDS011;41626;53.098;6.168;2023-03-17T14:38:38;9.27;;;6.50;;
55720;SDS011;41626;53.098;6.168;2023-03-17T14:43:38;10.10;;;7.13;;
55720;SDS011;41626;53.098;6.168;2023-03-17T14:46:05;8.37;;;6.53;;
55720;SDS011;41626;53.098;6.168;2023-03-17T14:48:37;9.32;;;6.88;;
55720;SDS011;41626;53.098;6.168;2023-03-17T14:51:07;9.55;;;6.55;;
55720;SDS011;41626;53.098;6.168;2023-03-17T14:53:40;10.43;;;6.75;;
55720;SDS011;41626;53.098;6.168;2023-03-17T14:56:10;9.52;;;6.85;;
55720;SDS011;41626;53.098;6.168;2023-03-17T14:58:41;10.32;;;7.13;;
55720;SDS011;41626;53.098;6.168;2023-03-17T15:01:14;10.20;;;7.32;;
55720;SDS011;41626;53.098;6.168;2023-03-17T15:03:55;12.67;;;7.70;;
55720;SDS011;41626;53.098;6.168;2023-03-17T15:06:27;13.63;;;8.37;;
55720;SDS011;41626;53.098;6.168;2023-03-17T15:08:56;9.95;;;7.28;;
55720;SDS011;41626;53.098;6.168;2023-03-17T15:11:24;10.40;;;8.05;;
55720;SDS011;41626;53.098;6.168;2023-03-17T15:13:53;11.13;;;7.72;;
55720;SDS011;41626;53.098;6.168;2023-03-17T15:16:28;17.30;;;10.52;;
55720;SDS011;41626;53.098;6.168;2023-03-17T15:19:05;13.68;;;10.13;;
55720;SDS011;41626;53.098;6.168;2023-03-17T15:21:40;13.37;;;9.07;;
55720;SDS011;41626;53.098;6.168;2023-03-17T15:24:24;12.30;;;8.63;;
55720;SDS011;41626;53.098;6.168;2023-03-17T15:27:06;54.92;;;30.52;;
55720;SDS011;41626;53.098;6.168;2023-03-17T15:29:38;18.02;;;11.45;;
55720;SDS011;41626;53.098;6.168;2023-03-17T15:32:11;14.90;;;9.60;;
55720;SDS011;41626;53.098;6.168;2023-03-17T15:34:44;11.07;;;8.13;;
55720;SDS011;41626;53.098;6.168;2023-03-17T15:37:18;10.60;;;7.57;;
55720;SDS011;41626;53.098;6.168;2023-03-17T15:39:46;9.23;;;7.70;;
55720;SDS011;41626;53.098;6.168;2023-03-17T15:42:13;18.55;;;8.60;;
55720;SDS011;41626;53.098;6.168;2023-03-17T15:44:40;18.17;;;10.60;;
55720;SDS011;41626;53.098;6.168;2023-03-17T15:47:06;15.67;;;10.50;;
55720;SDS011;41626;53.098;6.168;2023-03-17T15:49:35;9.95;;;7.57;;
55720;SDS011;41626;53.098;6.168;2023-03-17T15:52:01;13.85;;;12.13;;
55720;SDS011;41626;53.098;6.168;2023-03-17T15:54:26;53.80;;;37.53;;
55720;SDS011;41626;53.098;6.168;2023-03-17T15:56:52;51.57;;;36.77;;
55720;SDS011;41626;53.098;6.168;2023-03-17T15:59:18;31.07;;;20.67;;
55720;SDS011;41626;53.098;6.168;2023-03-17T16:01:43;18.45;;;12.10;;
55720;SDS011;41626;53.098;6.168;2023-03-17T16:04:09;10.57;;;7.53;;
55720;SDS011;41626;53.098;6.168;2023-03-17T16:06:35;24.45;;;15.23;;
55720;SDS011;41626;53.098;6.168;2023-03-17T16:09:01;21.42;;;14.48;;
55720;SDS011;41626;53.098;6.168;2023-03-17T16:11:28;16.80;;;10.35;;
55720;SDS011;41626;53.098;6.168;2023-03-17T16:13:55;12.05;;;7.93;;
55720;SDS011;41626;53.098;6.168;2023-03-17T16:16:44;9.30;;;7.28;;
55720;SDS011;41626;53.098;6.168;2023-03-17T16:19:16;8.75;;;6.80;;
55720;SDS011;41626;53.098;6.168;2023-03-17T16:21:47;11.43;;;7.90;;
55720;SDS011;41626;53.098;6.168;2023-03-17T16:24:17;13.20;;;9.40;;
55720;SDS011;41626;53.098;6.168;2023-03-17T16:26:44;10.90;;;7.10;;